Time;durP1;ratioP1;P1;durP2;ratioP2;P2;SDS_P1;SDS_P2;PMS_P1;PMS_P2;Temp;Humidity;BMP_temperature;BMP_pressure;BME280_temperature;BME280_humidity;BME280_pressure;Samples;Min_cycle;Max_cycle;Signal;HPM_P1;HPM_P2
2022/11/11 00:01:06;;;;;;;25.60;3.22;;;13.10;75.50;;;;;;4156288;28;20037;-84
2022/11/11 00:03:25;;;;;;;32.33;2.90;;;12.90;75.30;;;;;;4156570;28;20117;-85
2022/11/11 00:05:44;;;;;;;31.80;3.88;;;13.00;75.40;;;;;;4157557;28;20355;-84
2022/11/11 00:08:04;;;;;;;20.02;3.75;;;13.00;75.50;;;;;;4172476;28;20044;-84
2022/11/11 00:10:26;;;;;;;19.67;2.65;;;12.90;75.50;;;;;;4174244;28;20070;-84
2022/11/11 00:12:45;;;;;;;21.42;2.92;;;13.00;75.50;;;;;;4160174;28;20067;-84
2022/11/11 00:15:05;;;;;;;25.13;2.88;;;13.00;75.60;;;;;;4158547;28;20057;-85
2022/11/11 00:25:21;;;;;;;25.55;3.22;;;13.10;75.60;;;;;;4159960;28;20067;-84
2022/11/11 00:27:40;;;;;;;15.02;2.75;;;13.00;75.50;;;;;;4159197;28;20044;-83
2022/11/11 00:29:59;;;;;;;20.40;2.97;;;12.90;75.50;;;;;;4160140;28;20052;-85
2022/11/11 00:32:29;;;;;;;26.95;3.22;;;12.90;75.50;;;;;;4158887;28;20407;-84
2022/11/11 00:37:29;;;;;;;22.42;2.83;;;13.00;75.60;;;;;;4156854;28;20048;-83
2022/11/11 00:39:48;;;;;;;22.58;3.45;;;13.00;75.60;;;;;;4157938;28;20083;-84
2022/11/11 00:42:07;;;;;;;21.05;3.13;;;13.00;75.60;;;;;;4155346;28;20641;-83
2022/11/11 00:44:26;;;;;;;24.73;3.10;;;12.90;75.60;;;;;;4158766;28;20048;-84
2022/11/11 00:52:01;;;;;;;13.20;2.40;;;12.90;75.60;;;;;;4155983;28;20098;-83
2022/11/11 00:54:20;;;;;;;23.83;2.70;;;12.90;75.60;;;;;;4159235;28;20060;-84
2022/11/11 00:56:40;;;;;;;18.20;2.80;;;12.90;75.60;;;;;;4157918;28;20137;-84
2022/11/11 00:58:59;;;;;;;19.33;3.33;;;12.90;75.60;;;;;;4158666;28;20051;-85
2022/11/11 01:01:18;;;;;;;19.73;3.17;;;12.90;75.60;;;;;;4162022;28;20056;-84
2022/11/11 01:03:38;;;;;;;20.08;3.50;;;13.00;75.60;;;;;;4162010;28;20057;-84
2022/11/11 01:06:02;;;;;;;27.38;2.80;;;13.00;75.50;;;;;;4157807;28;20064;-84
2022/11/11 01:08:24;;;;;;;20.02;3.13;;;13.00;75.50;;;;;;4164821;28;20505;-84
2022/11/11 01:10:43;;;;;;;20.15;3.00;;;13.00;75.50;;;;;;4160324;28;20094;-84
2022/11/11 01:13:35;;;;;;;34.33;3.30;;;12.90;75.50;;;;;;4159416;28;20040;-82
2022/11/11 01:16:01;;;;;;;16.40;2.65;;;12.90;75.30;;;;;;4147405;28;20537;-84
2022/11/11 01:18:23;;;;;;;18.67;3.00;;;13.00;75.40;;;;;;4143822;28;20128;-83
2022/11/11 01:20:43;;;;;;;22.15;3.05;;;13.10;76.20;;;;;;4142953;28;20044;-82
2022/11/11 01:23:06;;;;;;;18.60;3.20;;;12.90;75.30;;;;;;4143670;28;20112;-84
2022/11/11 01:25:25;;;;;;;16.25;2.72;;;12.90;75.30;;;;;;4143276;28;20249;-84
2022/11/11 01:27:45;;;;;;;20.85;3.47;;;13.00;75.40;;;;;;4138860;28;20427;-83
2022/11/11 01:30:05;;;;;;;18.77;3.22;;;12.90;75.30;;;;;;4144770;28;20044;-84
2022/11/11 01:32:24;;;;;;;18.05;2.60;;;12.90;75.30;;;;;;4155784;28;20037;-84
2022/11/11 01:34:44;;;;;;;21.92;3.20;;;12.90;75.30;;;;;;4162713;28;20088;-84
2022/11/11 01:37:03;;;;;;;17.27;3.15;;;12.90;75.40;;;;;;4162035;28;20054;-84
2022/11/11 01:39:22;;;;;;;16.70;3.38;;;13.00;75.40;;;;;;4162077;28;20036;-84
2022/11/11 01:41:41;;;;;;;23.48;2.85;;;13.00;75.50;;;;;;4161922;28;20041;-83
2022/11/11 01:44:12;;;;;;;17.33;2.60;;;13.00;75.50;;;;;;4162533;28;20044;-84
2022/11/11 01:46:44;;;;;;;21.40;3.45;;;12.90;75.40;;;;;;4160327;28;20090;-84
2022/11/11 01:49:25;;;;;;;22.00;3.13;;;12.90;75.40;;;;;;4161004;28;20041;-84
2022/11/11 01:52:09;;;;;;;26.65;3.92;;;12.90;75.50;;;;;;4162724;28;20068;-82
2022/11/11 01:54:59;;;;;;;21.25;3.53;;;12.90;75.40;;;;;;4162748;28;20087;-83
2022/11/11 01:57:21;;;;;;;13.88;3.22;;;12.90;75.20;;;;;;4157457;28;20176;-83
2022/11/11 01:59:45;;;;;;;20.80;3.63;;;13.00;75.50;;;;;;4160235;28;20107;-83
2022/11/11 02:02:28;;;;;;;22.97;3.63;;;12.90;75.40;;;;;;4161822;28;20056;-84
2022/11/11 02:07:28;;;;;;;22.48;3.42;;;13.00;75.50;;;;;;4163038;28;20072;-84
2022/11/11 02:09:50;;;;;;;24.17;3.33;;;13.00;75.50;;;;;;4162267;28;20186;-84
2022/11/11 02:14:52;;;;;;;16.25;2.70;;;13.00;75.50;;;;;;4171253;28;20040;-84
2022/11/11 02:17:14;;;;;;;19.33;3.50;;;12.90;75.50;;;;;;4158774;28;20067;-84
2022/11/11 02:19:41;;;;;;;30.88;4.20;;;12.90;75.50;;;;;;4160267;28;20430;-84
2022/11/11 02:22:04;;;;;;;23.80;3.70;;;12.90;75.60;;;;;;4159857;28;20528;-84
2022/11/11 02:24:24;;;;;;;22.17;2.95;;;13.00;75.60;;;;;;4160870;28;20049;-85
2022/11/11 02:26:45;;;;;;;28.38;3.40;;;12.90;76.40;;;;;;4174479;28;20068;-84
2022/11/11 02:29:11;;;;;;;27.92;4.00;;;12.90;75.70;;;;;;4160545;28;20543;-84
2022/11/11 02:31:31;;;;;;;24.98;2.97;;;13.00;75.70;;;;;;4160662;28;20041;-84
2022/11/11 02:33:50;;;;;;;21.73;3.22;;;12.80;75.70;;;;;;4159589;28;20414;-84
2022/11/11 02:36:14;;;;;;;29.70;3.65;;;12.90;75.70;;;;;;4157796;28;20091;-83
2022/11/11 02:38:33;;;;;;;29.88;3.78;;;13.00;75.80;;;;;;4162346;28;20044;-83
2022/11/11 02:43:31;;;;;;;21.13;3.13;;;13.00;75.80;;;;;;4158166;28;20075;-83
2022/11/11 02:45:50;;;;;;;19.77;2.90;;;12.90;75.80;;;;;;4157944;28;20141;-83
2022/11/11 02:48:10;;;;;;;24.55;3.08;;;13.00;75.90;;;;;;4159976;28;20098;-84
2022/11/11 02:50:29;;;;;;;21.15;3.08;;;12.80;75.70;;;;;;4159841;28;20434;-83
2022/11/11 02:52:48;;;;;;;26.55;4.35;;;13.00;75.90;;;;;;4160849;28;20039;-84
2022/11/11 02:55:07;;;;;;;20.58;3.15;;;12.80;75.70;;;;;;4159519;28;20117;-83
2022/11/11 02:57:27;;;;;;;29.55;3.58;;;12.90;75.80;;;;;;4155472;28;20060;-83
2022/11/11 02:59:46;;;;;;;15.30;2.95;;;12.90;75.80;;;;;;4156239;28;20407;-83
2022/11/11 03:02:07;;;;;;;19.52;3.03;;;12.90;75.80;;;;;;4164882;28;20067;-82
2022/11/11 03:04:26;;;;;;;24.83;4.05;;;12.80;75.70;;;;;;4159926;28;20044;-83
2022/11/11 03:06:45;;;;;;;17.48;3.47;;;12.80;75.70;;;;;;4171776;28;20068;-83
2022/11/11 03:09:04;;;;;;;22.10;3.25;;;12.90;75.80;;;;;;4161887;28;20060;-84
2022/11/11 03:11:26;;;;;;;18.98;3.42;;;12.80;75.80;;;;;;4160124;28;20133;-84
2022/11/11 03:13:45;;;;;;;25.40;3.33;;;12.90;75.80;;;;;;4161114;28;20931;-84
2022/11/11 03:16:05;;;;;;;20.58;3.15;;;12.80;75.80;;;;;;4158568;28;20040;-84
2022/11/11 03:18:24;;;;;;;22.60;3.80;;;12.80;75.80;;;;;;4162508;28;20522;-85
2022/11/11 03:23:23;;;;;;;21.77;2.88;;;12.80;76.00;;;;;;4160524;28;20104;-84
2022/11/11 03:25:47;;;;;;;20.70;3.75;;;13.00;76.10;;;;;;4160398;28;20060;-83
2022/11/11 03:28:18;;;;;;;30.05;4.20;;;12.80;76.10;;;;;;4159719;28;20048;-84
2022/11/11 03:30:39;;;;;;;22.90;3.83;;;12.80;76.20;;;;;;4173867;28;20123;-83
2022/11/11 03:32:59;;;;;;;18.30;2.97;;;12.90;76.30;;;;;;4157276;28;20529;-84
2022/11/11 03:35:19;;;;;;;25.83;4.30;;;12.80;76.30;;;;;;4153988;28;20068;-84
2022/11/11 03:40:16;;;;;;;20.20;3.05;;;12.90;76.50;;;;;;4158039;28;20043;-85
2022/11/11 03:42:36;;;;;;;22.67;3.95;;;12.80;76.50;;;;;;4157989;28;21071;-83
2022/11/11 03:44:55;;;;;;;20.92;3.40;;;12.80;76.50;;;;;;4158712;28;20048;-83
2022/11/11 03:47:15;;;;;;;24.95;3.53;;;12.90;76.60;;;;;;4171277;28;20107;-83
2022/11/11 03:49:34;;;;;;;26.30;3.53;;;12.80;76.50;;;;;;4157380;28;20044;-83
2022/11/11 03:51:53;;;;;;;18.10;3.75;;;12.80;76.50;;;;;;4158070;28;20097;-83
2022/11/11 03:54:12;;;;;;;24.35;3.25;;;12.80;76.50;;;;;;4159229;28;20198;-84
2022/11/11 03:56:31;;;;;;;27.90;3.65;;;12.80;76.40;;;;;;4157921;28;20083;-83
2022/11/11 03:58:51;;;;;;;22.60;4.22;;;12.80;76.40;;;;;;4157719;28;20036;-84
2022/11/11 04:10:21;;;;;;;21.13;2.92;;;12.90;76.50;;;;;;4159732;28;20099;-83
2022/11/11 04:11:47;;;;;;;22.98;3.50;;;12.90;76.30;;;;;;4155507;28;20628;-84
2022/11/11 04:16:48;;;;;;;25.05;3.83;;;12.90;76.20;;;;;;4158694;28;20457;-83
2022/11/11 04:21:46;;;;;;;22.20;4.22;;;13.00;76.10;;;;;;4159019;28;20136;-84
2022/11/11 04:25:47;;;;;;;26.02;4.05;;;13.00;76.10;;;;;;4154742;28;20486;-83
2022/11/11 04:26:45;;;;;;;25.75;3.63;;;12.90;76.00;;;;;;4154801;28;20107;-84
2022/11/11 04:34:21;;;;;;;24.55;4.30;;;12.80;75.90;;;;;;4159775;28;20483;-83
2022/11/11 04:36:40;;;;;;;18.65;3.90;;;12.90;76.00;;;;;;4159524;28;20560;-84
2022/11/11 04:41:37;;;;;;;24.67;4.22;;;12.80;76.00;;;;;;4157955;28;20103;-84
2022/11/11 04:46:34;;;;;;;26.88;4.38;;;12.80;76.10;;;;;;4157921;28;20041;-82
2022/11/11 04:48:53;;;;;;;25.60;5.00;;;12.70;76.20;;;;;;4160655;28;20553;-83
2022/11/11 04:51:12;;;;;;;27.40;4.18;;;12.70;76.20;;;;;;4162130;28;20503;-82
2022/11/11 04:53:31;;;;;;;28.27;4.57;;;12.70;76.20;;;;;;4158037;28;20076;-83
2022/11/11 04:58:32;;;;;;;21.50;4.15;;;12.80;76.40;;;;;;4158848;28;20321;-82
2022/11/11 05:00:51;;;;;;;17.17;4.97;;;12.70;76.30;;;;;;4159400;28;20194;-83
2022/11/11 05:03:14;;;;;;;26.20;4.70;;;12.80;76.50;;;;;;4155981;28;20037;-82
2022/11/11 05:10:51;;;;;;;37.10;4.90;;;12.70;76.50;;;;;;4149036;28;20738;-83
2022/11/11 05:21:26;;;;;;;21.35;4.32;;;12.70;76.90;;;;;;4159977;28;20067;-85
2022/11/11 05:26:24;;;;;;;30.35;5.07;;;12.70;77.10;;;;;;4163961;28;20063;-83
2022/11/11 05:28:43;;;;;;;28.20;5.13;;;12.60;77.00;;;;;;4162052;28;20059;-84
2022/11/11 05:31:02;;;;;;;19.75;4.57;;;12.70;77.10;;;;;;4160209;28;20044;-84
2022/11/11 05:33:22;;;;;;;29.85;5.00;;;12.60;77.10;;;;;;4160030;28;20036;-84
2022/11/11 05:35:41;;;;;;;29.98;5.38;;;12.70;77.30;;;;;;4159115;28;20064;-84
2022/11/11 05:38:21;;;;;;;30.25;5.20;;;12.80;77.30;;;;;;4152942;28;20160;-84
2022/11/11 05:40:41;;;;;;;22.85;4.32;;;12.70;77.40;;;;;;4147722;28;20052;-84
2022/11/11 05:43:00;;;;;;;30.10;4.78;;;12.70;77.50;;;;;;4154638;28;20411;-85
2022/11/11 05:45:19;;;;;;;40.58;5.75;;;12.70;77.50;;;;;;4156720;28;20057;-84
2022/11/11 05:47:38;;;;;;;20.52;4.25;;;12.70;77.60;;;;;;4172722;28;20064;-84
2022/11/11 05:49:57;;;;;;;26.80;4.05;;;12.70;77.60;;;;;;4161395;28;20048;-84
2022/11/11 05:52:17;;;;;;;28.77;4.70;;;12.70;77.50;;;;;;4157269;28;20049;-84
2022/11/11 05:54:36;;;;;;;26.90;4.20;;;12.80;77.60;;;;;;4159879;28;20040;-83
2022/11/11 05:56:55;;;;;;;25.27;4.22;;;12.80;77.70;;;;;;4159516;28;20036;-83
2022/11/11 05:59:14;;;;;;;32.60;5.28;;;12.70;77.60;;;;;;4154962;28;20101;-83
2022/11/11 06:01:34;;;;;;;22.60;4.32;;;12.80;77.60;;;;;;4162095;28;20845;-82
2022/11/11 06:03:54;;;;;;;22.75;4.38;;;12.80;77.60;;;;;;4156874;28;21047;-83
2022/11/11 06:06:13;;;;;;;25.00;4.90;;;12.80;77.60;;;;;;4160669;28;20045;-84
2022/11/11 06:08:32;;;;;;;19.27;3.88;;;12.80;77.60;;;;;;4160382;28;20402;-83
2022/11/11 06:10:52;;;;;;;33.83;5.25;;;12.90;77.70;;;;;;4161328;28;20064;-83
2022/11/11 06:13:13;;;;;;;29.33;4.78;;;12.80;77.70;;;;;;4157369;28;20127;-82
2022/11/11 06:15:37;;;;;;;21.55;4.90;;;12.80;77.70;;;;;;4160724;28;20088;-83
2022/11/11 06:17:56;;;;;;;23.35;5.00;;;12.70;77.60;;;;;;4162276;28;20053;-84
2022/11/11 06:20:15;;;;;;;20.67;4.15;;;12.70;77.60;;;;;;4163498;28;20068;-83
2022/11/11 06:27:51;;;;;;;23.00;4.05;;;12.80;77.60;;;;;;4162423;28;20036;-83
2022/11/11 06:30:10;;;;;;;25.20;4.50;;;12.70;77.60;;;;;;4164316;28;20083;-83
2022/11/11 06:32:29;;;;;;;24.10;4.30;;;12.70;77.60;;;;;;4165647;28;20072;-83
2022/11/11 06:34:49;;;;;;;39.63;4.78;;;12.80;77.60;;;;;;4166199;28;20060;-83
2022/11/11 06:37:08;;;;;;;24.23;4.43;;;12.80;77.70;;;;;;4160595;28;20088;-83
2022/11/11 06:39:27;;;;;;;21.55;4.60;;;12.70;77.60;;;;;;4161465;28;20086;-83
2022/11/11 06:41:46;;;;;;;28.10;4.70;;;12.80;77.70;;;;;;4165605;28;20041;-83
2022/11/11 06:44:05;;;;;;;25.70;4.38;;;12.90;77.70;;;;;;4162195;28;20044;-84
2022/11/11 06:46:25;;;;;;;24.85;4.25;;;12.70;78.50;;;;;;4162350;28;20040;-84
2022/11/11 06:48:45;;;;;;;23.40;4.72;;;12.70;77.60;;;;;;4160684;28;20096;-83
2022/11/11 06:51:05;;;;;;;27.90;5.03;;;12.80;77.70;;;;;;4159168;28;20063;-83
2022/11/11 06:53:24;;;;;;;26.92;4.45;;;12.90;77.80;;;;;;4159765;28;20072;-84
2022/11/11 06:55:44;;;;;;;25.63;4.78;;;12.70;77.70;;;;;;4163571;28;20137;-83
2022/11/11 06:58:05;;;;;;;30.63;4.85;;;12.80;77.80;;;;;;4165678;28;20072;-83
2022/11/11 07:00:24;;;;;;;19.42;4.00;;;12.80;77.80;;;;;;4165238;28;20044;-84
2022/11/11 07:02:43;;;;;;;23.73;4.53;;;12.70;77.80;;;;;;4161684;28;20067;-84
2022/11/11 07:05:02;;;;;;;28.77;4.68;;;12.70;78.00;;;;;;4165739;28;20072;-83
2022/11/11 07:07:22;;;;;;;23.20;4.07;;;12.70;78.10;;;;;;4163060;28;20072;-84
2022/11/11 07:09:41;;;;;;;23.00;5.18;;;12.70;78.10;;;;;;4164199;28;20065;-84
2022/11/11 07:12:00;;;;;;;23.83;4.22;;;12.80;78.20;;;;;;4162399;28;20119;-83
2022/11/11 07:14:19;;;;;;;22.40;4.20;;;12.80;78.10;;;;;;4159484;28;20095;-84
2022/11/11 07:16:38;;;;;;;18.83;3.88;;;12.70;78.10;;;;;;4160081;28;20626;-83
2022/11/11 07:18:57;;;;;;;26.63;4.40;;;12.70;78.20;;;;;;4162566;28;20036;-84
2022/11/11 07:21:16;;;;;;;26.70;5.03;;;12.80;78.30;;;;;;4158665;28;20071;-84
2022/11/11 07:23:35;;;;;;;23.55;4.20;;;12.70;78.30;;;;;;4161551;28;20048;-83
2022/11/11 07:25:54;;;;;;;29.95;5.15;;;12.70;78.20;;;;;;4160860;28;20040;-83
2022/11/11 07:28:14;;;;;;;33.42;4.00;;;12.80;78.40;;;;;;4161934;28;20037;-84
2022/11/11 07:30:33;;;;;;;21.70;3.92;;;12.70;78.30;;;;;;4160046;28;20109;-82
2022/11/11 07:32:52;;;;;;;23.27;4.47;;;12.70;78.20;;;;;;4160436;28;20064;-84
2022/11/11 07:35:13;;;;;;;21.73;3.78;;;12.80;78.40;;;;;;4162784;28;20099;-84
2022/11/11 07:37:32;;;;;;;20.52;3.97;;;12.70;78.30;;;;;;4162559;28;20040;-83
2022/11/11 07:39:51;;;;;;;23.85;3.75;;;12.70;78.30;;;;;;4160131;28;20037;-84
2022/11/11 07:42:11;;;;;;;24.30;4.07;;;12.80;78.40;;;;;;4162302;28;20093;-84
2022/11/11 07:44:30;;;;;;;31.55;5.38;;;12.80;78.40;;;;;;4166056;28;20033;-83
2022/11/11 07:46:49;;;;;;;23.98;4.10;;;12.80;78.50;;;;;;4163180;28;20129;-83
2022/11/11 07:49:08;;;;;;;26.35;4.70;;;12.70;78.50;;;;;;4163006;28;20052;-82
2022/11/11 07:51:27;;;;;;;35.92;4.45;;;12.70;78.40;;;;;;4160832;28;20032;-84
2022/11/11 07:53:46;;;;;;;28.83;4.25;;;12.80;78.40;;;;;;4159438;28;20530;-83
2022/11/11 07:56:06;;;;;;;18.92;3.80;;;12.90;78.50;;;;;;4158611;28;20040;-84
2022/11/11 07:58:26;;;;;;;27.13;4.60;;;12.80;78.40;;;;;;4165192;28;20033;-83
2022/11/11 08:00:45;;;;;;;27.38;5.45;;;12.90;78.40;;;;;;4160423;28;20658;-83
2022/11/11 08:03:06;;;;;;;24.35;4.43;;;12.90;78.50;;;;;;4159760;28;20052;-83
2022/11/11 08:05:25;;;;;;;20.92;4.32;;;12.80;78.40;;;;;;4156871;28;20492;-83
2022/11/11 08:07:44;;;;;;;24.33;4.57;;;12.90;78.40;;;;;;4162182;28;20048;-83
2022/11/11 08:10:03;;;;;;;23.98;5.53;;;12.90;78.40;;;;;;4158343;28;20412;-83
2022/11/11 08:15:01;;;;;;;24.42;5.60;;;12.90;78.20;;;;;;4162928;28;20041;-84
2022/11/11 08:17:20;;;;;;;22.77;5.13;;;12.80;78.00;;;;;;4160933;28;20040;-83
2022/11/11 08:19:39;;;;;;;19.17;4.95;;;12.80;77.90;;;;;;4159671;28;20498;-84
2022/11/11 08:21:59;;;;;;;29.38;6.25;;;12.90;78.00;;;;;;4159226;28;20040;-83
2022/11/11 08:24:18;;;;;;;27.45;6.70;;;12.80;77.90;;;;;;4160191;28;20041;-83
2022/11/11 08:26:38;;;;;;;30.02;6.00;;;12.80;77.90;;;;;;4161249;28;20295;-84
2022/11/11 08:28:57;;;;;;;28.02;6.22;;;12.90;77.90;;;;;;4163710;28;20105;-84
2022/11/11 08:31:16;;;;;;;27.63;6.43;;;12.80;77.80;;;;;;4161501;28;20517;-83
2022/11/11 08:33:36;;;;;;;25.20;6.00;;;12.80;77.80;;;;;;4162561;28;20084;-84
2022/11/11 08:35:58;;;;;;;24.45;5.88;;;12.90;77.80;;;;;;4161065;28;20553;-83
2022/11/11 08:38:18;;;;;;;25.50;6.60;;;12.80;77.70;;;;;;4162775;28;20045;-83
2022/11/11 08:40:37;;;;;;;19.70;5.88;;;12.90;77.80;;;;;;4162200;28;20125;-83
2022/11/11 08:42:57;;;;;;;26.88;6.60;;;12.80;77.70;;;;;;4159505;28;20048;-83
2022/11/11 08:45:17;;;;;;;25.35;6.30;;;12.80;77.80;;;;;;4162447;28;20033;-84
2022/11/11 08:47:36;;;;;;;24.55;6.32;;;12.70;77.70;;;;;;4158914;28;20052;-84
2022/11/11 08:49:56;;;;;;;25.70;6.25;;;12.80;77.80;;;;;;4157411;28;20068;-84
2022/11/11 08:52:15;;;;;;;24.50;5.72;;;12.80;77.90;;;;;;4166255;28;20041;-84
2022/11/11 08:54:34;;;;;;;32.60;6.13;;;12.90;77.90;;;;;;4158035;28;20399;-83
2022/11/11 08:56:55;;;;;;;30.42;6.65;;;12.90;77.90;;;;;;4164944;28;20095;-83
2022/11/11 08:59:14;;;;;;;23.45;6.03;;;12.80;77.90;;;;;;4156283;28;20484;-82
2022/11/11 09:01:33;;;;;;;31.42;6.50;;;12.90;77.90;;;;;;4160577;28;20037;-83
2022/11/11 09:03:52;;;;;;;20.55;6.40;;;12.80;77.80;;;;;;4162586;28;20044;-84
2022/11/11 09:06:11;;;;;;;27.08;5.72;;;12.90;77.90;;;;;;4165586;28;20059;-84
2022/11/11 09:08:31;;;;;;;28.52;6.47;;;12.80;77.90;;;;;;4165988;28;20122;-83
2022/11/11 09:10:50;;;;;;;34.38;7.57;;;12.80;78.50;;;;;;4159410;28;20072;-83
2022/11/11 09:13:09;;;;;;;24.88;6.38;;;12.80;77.80;;;;;;4163448;28;20121;-83
2022/11/11 09:15:28;;;;;;;28.05;7.63;;;12.80;77.80;;;;;;4164156;28;20044;-83
2022/11/11 09:17:48;;;;;;;22.77;6.40;;;12.80;77.70;;;;;;4166203;28;20044;-84
2022/11/11 09:20:08;;;;;;;24.30;7.00;;;12.90;77.80;;;;;;4162987;28;20041;-82
2022/11/11 09:22:27;;;;;;;20.27;5.82;;;12.90;77.80;;;;;;4162780;28;20041;-83
2022/11/11 09:24:47;;;;;;;30.40;7.38;;;12.90;77.80;;;;;;4159805;28;20076;-83
2022/11/11 09:27:06;;;;;;;29.10;6.78;;;12.90;77.80;;;;;;4161728;28;20040;-82
2022/11/11 09:29:25;;;;;;;29.48;7.13;;;13.00;77.80;;;;;;4163130;28;20106;-83
2022/11/11 09:31:45;;;;;;;31.13;7.28;;;12.90;77.70;;;;;;4168208;28;20256;-82
2022/11/11 09:34:05;;;;;;;29.13;7.47;;;12.90;77.70;;;;;;4174563;28;20060;-82
2022/11/11 09:36:25;;;;;;;26.65;7.65;;;12.90;77.70;;;;;;4173185;28;20036;-83
2022/11/11 09:38:44;;;;;;;24.35;7.13;;;12.90;77.70;;;;;;4169504;28;20040;-83
2022/11/11 09:41:17;;;;;;;22.10;6.63;;;12.90;77.70;;;;;;4163310;28;20056;-84
2022/11/11 09:43:51;;;;;;;21.45;6.90;;;12.90;77.70;;;;;;4167118;28;20080;-84
2022/11/11 09:46:28;;;;;;;29.52;7.30;;;12.90;77.70;;;;;;4170356;28;20052;-83
2022/11/11 09:49:14;;;;;;;23.38;6.88;;;12.90;77.70;;;;;;4170621;28;20056;-83
2022/11/11 09:52:02;;;;;;;28.33;7.90;;;12.90;77.60;;;;;;4168826;28;20044;-84
2022/11/11 09:54:36;;;;;;;28.15;7.60;;;12.90;77.70;;;;;;4168688;28;20125;-83
2022/11/11 09:56:57;;;;;;;23.13;7.38;;;13.00;77.70;;;;;;4165048;28;20052;-83
2022/11/11 09:59:26;;;;;;;22.23;6.72;;;13.10;77.70;;;;;;4158407;28;20100;-84
2022/11/11 10:01:51;;;;;;;24.23;7.28;;;13.00;77.70;;;;;;4164194;28;20067;-83
2022/11/11 10:04:13;;;;;;;20.70;6.93;;;13.00;77.60;;;;;;4169381;28;20554;-83
2022/11/11 10:06:35;;;;;;;22.08;7.32;;;13.00;77.60;;;;;;4166916;28;20033;-84
2022/11/11 10:09:02;;;;;;;30.10;7.55;;;13.00;77.60;;;;;;4165702;28;20044;-85
2022/11/11 10:11:33;;;;;;;35.13;8.32;;;13.00;77.60;;;;;;4167646;28;20036;-83
2022/11/11 10:13:54;;;;;;;27.98;8.63;;;13.00;77.50;;;;;;4163921;28;20057;-83
2022/11/11 10:16:20;;;;;;;28.13;8.80;;;13.10;77.50;;;;;;4164918;28;20036;-83
2022/11/11 10:19:04;;;;;;;37.67;10.25;;;13.00;77.30;;;;;;4175048;28;20060;-83
2022/11/11 10:21:35;;;;;;;27.85;9.82;;;13.00;77.20;;;;;;4163464;28;20040;-83
2022/11/11 10:24:00;;;;;;;31.13;9.93;;;13.00;77.10;;;;;;4163631;28;20044;-83
2022/11/11 10:26:34;;;;;;;25.88;9.68;;;13.00;77.00;;;;;;4163696;28;20040;-83
2022/11/11 10:28:53;;;;;;;25.00;9.20;;;13.00;76.90;;;;;;4169448;28;20056;-83
2022/11/11 10:31:19;;;;;;;28.80;9.73;;;13.10;77.10;;;;;;4169873;28;20159;-84
2022/11/11 10:33:53;;;;;;;31.05;10.00;;;13.00;77.00;;;;;;4162212;28;20049;-83
2022/11/11 10:36:17;;;;;;;28.15;9.88;;;13.00;77.00;;;;;;4164854;28;20072;-83
2022/11/11 10:38:39;;;;;;;31.02;10.10;;;13.00;77.00;;;;;;4166435;28;20036;-84
2022/11/11 10:41:29;;;;;;;29.10;9.90;;;13.00;76.90;;;;;;4162752;28;20044;-84
2022/11/11 10:43:49;;;;;;;29.95;9.93;;;12.90;76.80;;;;;;4163091;28;20040;-82
2022/11/11 10:46:16;;;;;;;28.42;9.82;;;12.90;76.80;;;;;;4167884;28;20087;-84
2022/11/11 10:48:57;;;;;;;27.05;9.82;;;12.90;76.80;;;;;;4163779;28;20036;-84
2022/11/11 10:51:18;;;;;;;26.73;10.00;;;12.90;76.90;;;;;;4163569;28;20040;-84
2022/11/11 10:54:27;;;;;;;31.45;9.80;;;13.00;76.90;;;;;;4162215;28;20045;-83
2022/11/11 10:57:05;;;;;;;29.50;10.18;;;12.90;76.90;;;;;;4169983;28;20089;-84
2022/11/11 10:59:34;;;;;;;30.80;9.50;;;12.90;76.90;;;;;;4165036;28;20044;-83
2022/11/11 11:02:08;;;;;;;30.35;9.93;;;12.90;76.90;;;;;;4165571;28;20037;-84
2022/11/11 11:04:39;;;;;;;26.48;9.10;;;13.00;77.10;;;;;;4166029;28;20686;-84
2022/11/11 11:07:02;;;;;;;32.40;9.77;;;12.90;77.00;;;;;;4161667;28;20076;-84
2022/11/11 11:09:28;;;;;;;28.17;8.80;;;13.00;77.10;;;;;;4163621;28;20470;-84
2022/11/11 11:11:57;;;;;;;35.35;9.80;;;12.90;77.10;;;;;;4167423;28;20036;-84
2022/11/11 11:14:23;;;;;;;25.08;8.48;;;12.90;77.10;;;;;;4165175;28;20037;-84
2022/11/11 11:16:50;;;;;;;29.80;8.63;;;12.90;77.10;;;;;;4175098;28;20082;-85
2022/11/11 11:19:21;;;;;;;25.55;9.20;;;12.90;77.10;;;;;;4165082;28;20088;-83
2022/11/11 11:21:55;;;;;;;28.33;8.38;;;12.90;77.20;;;;;;4165805;28;20050;-84
2022/11/11 11:24:25;;;;;;;26.95;7.95;;;12.90;77.30;;;;;;4167392;28;20040;-84
2022/11/11 11:26:47;;;;;;;24.20;7.28;;;12.90;77.30;;;;;;4166946;28;20041;-84
2022/11/11 11:29:06;;;;;;;31.42;7.32;;;12.90;77.40;;;;;;4169750;28;20058;-85
2022/11/11 11:31:38;;;;;;;30.30;7.15;;;12.90;77.50;;;;;;4162293;28;20036;-82
2022/11/11 11:33:58;;;;;;;33.85;8.05;;;12.90;77.60;;;;;;4166552;28;20097;-84
2022/11/11 11:36:18;;;;;;;24.13;6.95;;;13.00;77.60;;;;;;4164613;28;20033;-84
2022/11/11 11:38:46;;;;;;;26.30;6.93;;;12.90;77.50;;;;;;4164116;28;20101;-85
2022/11/11 11:41:02;;;;;;;28.02;7.35;;;12.90;77.60;;;;;;4159856;28;20040;-84
2022/11/11 11:43:37;;;;;;;22.52;6.10;;;13.00;77.60;;;;;;4164143;28;20080;-84
2022/11/11 11:46:00;;;;;;;28.65;6.70;;;13.00;77.70;;;;;;4181401;28;20067;-83
2022/11/11 11:48:32;;;;;;;18.95;5.82;;;13.10;77.70;;;;;;4169227;28;20044;-85
2022/11/11 11:50:56;;;;;;;27.45;6.63;;;13.10;77.70;;;;;;4168041;28;20094;-84
2022/11/11 11:53:18;;;;;;;28.10;7.13;;;13.00;77.70;;;;;;4166116;28;20387;-83
2022/11/11 11:55:51;;;;;;;25.50;6.82;;;13.00;77.60;;;;;;4169238;28;20041;-84
2022/11/11 11:58:19;;;;;;;24.70;6.80;;;13.00;77.60;;;;;;4162860;28;20063;-83
2022/11/11 12:01:00;;;;;;;25.95;6.68;;;13.10;77.50;;;;;;4179295;28;20028;-85
2022/11/11 12:03:54;;;;;;;25.05;6.60;;;13.00;77.50;;;;;;4164692;28;20036;-83
2022/11/11 12:06:25;;;;;;;31.30;7.60;;;13.00;77.30;;;;;;4164272;28;20121;-83
2022/11/11 12:09:01;;;;;;;20.95;6.68;;;13.20;77.40;;;;;;4165714;28;20048;-85
2022/11/11 12:11:34;;;;;;;24.48;6.88;;;13.20;77.30;;;;;;4166108;28;20041;-83
2022/11/11 12:13:57;;;;;;;22.52;5.78;;;13.10;77.30;;;;;;4165363;28;20061;-83
2022/11/11 12:16:24;;;;;;;24.25;5.85;;;13.20;77.30;;;;;;4167844;28;20113;-82
2022/11/11 12:19:11;;;;;;;31.80;6.57;;;13.10;77.30;;;;;;4166209;28;20041;-83
2022/11/11 12:22:03;;;;;;;26.33;6.40;;;13.10;77.20;;;;;;4162873;28;20049;-83
2022/11/11 12:24:42;;;;;;;23.83;6.45;;;13.10;77.20;;;;;;4162057;28;20094;-83
2022/11/11 12:27:08;;;;;;;24.27;6.28;;;13.10;77.20;;;;;;4165047;28;20507;-82
2022/11/11 12:29:48;;;;;;;22.02;5.45;;;13.10;77.20;;;;;;4162699;28;20041;-83
2022/11/11 12:32:31;;;;;;;20.45;5.70;;;13.10;77.20;;;;;;4163461;28;20022;-83
2022/11/11 12:35:10;;;;;;;20.70;5.82;;;13.10;77.20;;;;;;4148242;28;20515;-83
2022/11/11 12:37:28;;;;;;;18.15;5.63;;;13.10;77.10;;;;;;4145448;28;20499;-83
2022/11/11 12:39:41;;;;;;;22.02;6.15;;;13.20;77.10;;;;;;4167769;28;20123;-82
2022/11/11 12:42:12;;;;;;;23.13;5.63;;;13.20;77.10;;;;;;4165025;28;20069;-85
2022/11/11 12:44:14;;;;;;;25.75;6.80;;;13.10;77.00;;;;;;4162438;28;20014;-83
2022/11/11 12:46:20;;;;;;;21.17;5.55;;;13.20;77.00;;;;;;4163014;28;20032;-83
2022/11/11 12:48:27;;;;;;;19.05;6.20;;;13.20;77.10;;;;;;4164101;28;20025;-83
2022/11/11 12:51:00;;;;;;;27.90;6.60;;;13.10;77.00;;;;;;4166500;28;20018;-82
2022/11/11 12:53:36;;;;;;;28.17;6.63;;;13.10;77.00;;;;;;4143148;28;20168;-83
2022/11/11 12:56:08;;;;;;;22.35;5.70;;;13.20;76.90;;;;;;4158013;28;20046;-83
2022/11/11 12:58:49;;;;;;;26.92;6.35;;;13.10;77.00;;;;;;4175347;28;20040;-82
2022/11/11 13:01:09;;;;;;;23.02;5.68;;;13.10;76.90;;;;;;4144282;28;20037;-84
2022/11/11 13:03:19;;;;;;;27.88;7.47;;;13.10;76.90;;;;;;4153919;28;20032;-83
2022/11/11 13:05:45;;;;;;;28.38;6.20;;;13.20;77.00;;;;;;4165557;28;20072;-83
2022/11/11 13:08:27;;;;;;;20.92;6.68;;;13.10;77.60;;;;;;4159915;28;20041;-83
2022/11/11 13:10:55;;;;;;;25.50;6.38;;;13.10;76.90;;;;;;4162404;28;20038;-83
2022/11/11 13:13:33;;;;;;;22.58;6.40;;;13.20;76.90;;;;;;4163328;28;20036;-83
2022/11/11 13:15:57;;;;;;;27.70;6.38;;;13.10;76.80;;;;;;4167269;28;20029;-83
2022/11/11 13:18:26;;;;;;;27.20;6.10;;;13.30;76.90;;;;;;4164107;28;20029;-83
2022/11/11 13:21:14;;;;;;;25.42;6.25;;;13.10;76.80;;;;;;4160797;28;20034;-83
2022/11/11 13:23:35;;;;;;;29.63;6.68;;;13.10;76.70;;;;;;4160171;28;20040;-84
2022/11/11 13:26:01;;;;;;;23.85;6.40;;;13.10;76.70;;;;;;4166976;28;20051;-84
2022/11/11 13:28:40;;;;;;;30.08;6.22;;;13.10;76.60;;;;;;4165839;28;20026;-83
2022/11/11 13:31:24;;;;;;;26.20;6.28;;;13.20;76.70;;;;;;4167326;28;20092;-83
2022/11/11 13:33:48;;;;;;;26.30;6.87;;;13.10;76.70;;;;;;4165897;28;20037;-83
2022/11/11 13:36:13;;;;;;;40.13;8.10;;;13.10;76.60;;;;;;4164899;28;20076;-83